sensor_id;sensor_type;location;lat;lon;timestamp;P1;durP1;ratioP1;P2;durP2;ratioP2
72369;SDS011;60343;-32.030;115.880;2022-09-03T00:02:42;3.97;;;0.40;;
72369;SDS011;60343;-32.030;115.880;2022-09-03T00:05:18;1.98;;;0.30;;
72369;SDS011;60343;-32.030;115.880;2022-09-03T00:07:53;1.60;;;0.25;;
72369;SDS011;60343;-32.030;115.880;2022-09-03T00:10:28;1.80;;;0.20;;
72369;SDS011;60343;-32.030;115.880;2022-09-03T00:13:07;0.75;;;0.22;;
72369;SDS011;60343;-32.030;115.880;2022-09-03T00:15:39;1.50;;;0.20;;
72369;SDS011;60343;-32.030;115.880;2022-09-03T00:18:07;2.33;;;0.20;;
72369;SDS011;60343;-32.030;115.880;2022-09-03T00:20:40;1.58;;;0.20;;
72369;SDS011;60343;-32.030;115.880;2022-09-03T00:23:10;2.00;;;0.20;;
72369;SDS011;60343;-32.030;115.880;2022-09-03T00:25:46;0.82;;;0.17;;
72369;SDS011;60343;-32.030;115.880;2022-09-03T00:28:24;2.42;;;0.30;;
72369;SDS011;60343;-32.030;115.880;2022-09-03T00:31:05;0.90;;;0.20;;
72369;SDS011;60343;-32.030;115.880;2022-09-03T00:33:36;1.05;;;0.32;;
72369;SDS011;60343;-32.030;115.880;2022-09-03T00:36:09;0.57;;;0.10;;
72369;SDS011;60343;-32.030;115.880;2022-09-03T00:38:41;1.63;;;0.20;;
72369;SDS011;60343;-32.030;115.880;2022-09-03T00:41:10;1.85;;;0.40;;
72369;SDS011;60343;-32.030;115.880;2022-09-03T00:44:02;0.95;;;0.20;;
72369;SDS011;60343;-32.030;115.880;2022-09-03T00:46:44;1.65;;;0.20;;
72369;SDS011;60343;-32.030;115.880;2022-09-03T00:49:29;1.02;;;0.20;;
72369;SDS011;60343;-32.030;115.880;2022-09-03T00:52:07;1.63;;;0.20;;
72369;SDS011;60343;-32.030;115.880;2022-09-03T00:54:48;0.68;;;0.15;;
72369;SDS011;60343;-32.030;115.880;2022-09-03T00:57:26;0.98;;;0.20;;
72369;SDS011;60343;-32.030;115.880;2022-09-03T01:00:07;0.30;;;0.10;;
72369;SDS011;60343;-32.030;115.880;2022-09-03T01:02:41;1.50;;;0.20;;
72369;SDS011;60343;-32.030;115.880;2022-09-03T01:05:29;0.70;;;0.30;;
72369;SDS011;60343;-32.030;115.880;2022-09-03T01:08:23;0.68;;;0.22;;
72369;SDS011;60343;-32.030;115.880;2022-09-03T01:11:00;0.68;;;0.25;;
72369;SDS011;60343;-32.030;115.880;2022-09-03T01:13:35;0.63;;;0.20;;
72369;SDS011;60343;-32.030;115.880;2022-09-03T01:16:15;2.33;;;0.32;;
72369;SDS011;60343;-32.030;115.880;2022-09-03T01:18:58;0.65;;;0.20;;
72369;SDS011;60343;-32.030;115.880;2022-09-03T01:21:42;2.72;;;0.43;;
72369;SDS011;60343;-32.030;115.880;2022-09-03T01:27:34;0.93;;;0.10;;
72369;SDS011;60343;-32.030;115.880;2022-09-03T01:30:16;2.58;;;0.17;;
72369;SDS011;60343;-32.030;115.880;2022-09-03T01:32:46;2.25;;;0.20;;
72369;SDS011;60343;-32.030;115.880;2022-09-03T01:35:20;0.93;;;0.40;;
72369;SDS011;60343;-32.030;115.880;2022-09-03T01:38:02;0.60;;;0.22;;
72369;SDS011;60343;-32.030;115.880;2022-09-03T01:40:39;0.35;;;0.13;;
72369;SDS011;60343;-32.030;115.880;2022-09-03T01:43:18;3.33;;;0.40;;
72369;SDS011;60343;-32.030;115.880;2022-09-03T01:46:00;0.98;;;0.20;;
72369;SDS011;60343;-32.030;115.880;2022-09-03T01:48:40;1.55;;;0.32;;
72369;SDS011;60343;-32.030;115.880;2022-09-03T01:51:11;0.35;;;0.10;;
72369;SDS011;60343;-32.030;115.880;2022-09-03T01:53:53;1.55;;;0.13;;
72369;SDS011;60343;-32.030;115.880;2022-09-03T01:56:36;2.10;;;0.28;;
72369;SDS011;60343;-32.030;115.880;2022-09-03T01:59:16;0.52;;;0.20;;
72369;SDS011;60343;-32.030;115.880;2022-09-03T02:01:56;2.40;;;0.25;;
72369;SDS011;60343;-32.030;115.880;2022-09-03T02:06:59;0.52;;;0.20;;
72369;SDS011;60343;-32.030;115.880;2022-09-03T02:09:27;0.93;;;0.50;;
72369;SDS011;60343;-32.030;115.880;2022-09-03T02:11:57;1.95;;;0.20;;
72369;SDS011;60343;-32.030;115.880;2022-09-03T02:14:28;2.92;;;0.30;;
72369;SDS011;60343;-32.030;115.880;2022-09-03T02:17:02;0.65;;;0.17;;
72369;SDS011;60343;-32.030;115.880;2022-09-03T02:19:33;0.88;;;0.25;;
72369;SDS011;60343;-32.030;115.880;2022-09-03T02:22:01;0.17;;;0.10;;
72369;SDS011;60343;-32.030;115.880;2022-09-03T02:24:29;1.25;;;0.30;;
72369;SDS011;60343;-32.030;115.880;2022-09-03T02:26:57;1.52;;;0.32;;
72369;SDS011;60343;-32.030;115.880;2022-09-03T02:29:25;2.95;;;0.40;;
72369;SDS011;60343;-32.030;115.880;2022-09-03T02:31:52;0.80;;;0.20;;
72369;SDS011;60343;-32.030;115.880;2022-09-03T02:34:26;1.02;;;0.20;;
72369;SDS011;60343;-32.030;115.880;2022-09-03T02:36:54;1.42;;;0.25;;
72369;SDS011;60343;-32.030;115.880;2022-09-03T02:39:22;0.40;;;0.20;;
72369;SDS011;60343;-32.030;115.880;2022-09-03T02:41:51;0.73;;;0.30;;
72369;SDS011;60343;-32.030;115.880;2022-09-03T02:46:51;1.05;;;0.28;;
72369;SDS011;60343;-32.030;115.880;2022-09-03T02:49:27;1.45;;;0.28;;
72369;SDS011;60343;-32.030;115.880;2022-09-03T02:51:57;1.05;;;0.30;;
72369;SDS011;60343;-32.030;115.880;2022-09-03T02:54:26;1.08;;;0.20;;
72369;SDS011;60343;-32.030;115.880;2022-09-03T02:56:54;1.10;;;0.30;;
72369;SDS011;60343;-32.030;115.880;2022-09-03T02:59:21;0.47;;;0.20;;
72369;SDS011;60343;-32.030;115.880;2022-09-03T03:01:49;1.88;;;0.30;;
72369;SDS011;60343;-32.030;115.880;2022-09-03T03:04:17;1.20;;;0.20;;
72369;SDS011;60343;-32.030;115.880;2022-09-03T03:06:50;0.45;;;0.20;;
72369;SDS011;60343;-32.030;115.880;2022-09-03T03:09:18;0.65;;;0.13;;
72369;SDS011;60343;-32.030;115.880;2022-09-03T03:11:46;1.02;;;0.28;;
72369;SDS011;60343;-32.030;115.880;2022-09-03T03:14:13;0.75;;;0.32;;
72369;SDS011;60343;-32.030;115.880;2022-09-03T03:16:41;1.85;;;0.47;;
72369;SDS011;60343;-32.030;115.880;2022-09-03T03:19:09;1.05;;;0.20;;
72369;SDS011;60343;-32.030;115.880;2022-09-03T03:21:37;1.45;;;0.40;;
72369;SDS011;60343;-32.030;115.880;2022-09-03T03:24:10;0.70;;;0.20;;
72369;SDS011;60343;-32.030;115.880;2022-09-03T03:26:38;1.50;;;0.20;;
72369;SDS011;60343;-32.030;115.880;2022-09-03T03:29:05;1.00;;;0.30;;
72369;SDS011;60343;-32.030;115.880;2022-09-03T03:31:33;1.08;;;0.20;;
72369;SDS011;60343;-32.030;115.880;2022-09-03T03:34:01;1.63;;;0.30;;
72369;SDS011;60343;-32.030;115.880;2022-09-03T03:36:30;0.90;;;0.20;;
72369;SDS011;60343;-32.030;115.880;2022-09-03T03:38:59;2.15;;;0.30;;
72369;SDS011;60343;-32.030;115.880;2022-09-03T03:41:33;1.10;;;0.20;;
72369;SDS011;60343;-32.030;115.880;2022-09-03T03:44:01;0.93;;;0.20;;
72369;SDS011;60343;-32.030;115.880;2022-09-03T03:46:31;1.55;;;0.22;;
72369;SDS011;60343;-32.030;115.880;2022-09-03T03:48:59;1.23;;;0.20;;
72369;SDS011;60343;-32.030;115.880;2022-09-03T03:51:28;2.35;;;0.40;;
72369;SDS011;60343;-32.030;115.880;2022-09-03T03:53:55;1.98;;;0.30;;
72369;SDS011;60343;-32.030;115.880;2022-09-03T03:56:24;5.38;;;0.20;;
72369;SDS011;60343;-32.030;115.880;2022-09-03T03:58:58;0.77;;;0.30;;
72369;SDS011;60343;-32.030;115.880;2022-09-03T04:01:26;0.82;;;0.20;;
72369;SDS011;60343;-32.030;115.880;2022-09-03T04:03:54;1.02;;;0.20;;
72369;SDS011;60343;-32.030;115.880;2022-09-03T04:06:22;0.70;;;0.20;;
72369;SDS011;60343;-32.030;115.880;2022-09-03T04:08:50;2.95;;;0.38;;
72369;SDS011;60343;-32.030;115.880;2022-09-03T04:11:19;1.95;;;0.20;;
72369;SDS011;60343;-32.030;115.880;2022-09-03T04:13:47;1.35;;;0.20;;
72369;SDS011;60343;-32.030;115.880;2022-09-03T04:16:21;0.68;;;0.20;;
72369;SDS011;60343;-32.030;115.880;2022-09-03T04:18:50;1.17;;;0.25;;
72369;SDS011;60343;-32.030;115.880;2022-09-03T04:21:19;1.00;;;0.28;;
72369;SDS011;60343;-32.030;115.880;2022-09-03T04:23:48;1.08;;;0.22;;
72369;SDS011;60343;-32.030;115.880;2022-09-03T04:26:17;0.40;;;0.20;;
72369;SDS011;60343;-32.030;115.880;2022-09-03T04:28:46;1.08;;;0.25;;
72369;SDS011;60343;-32.030;115.880;2022-09-03T04:31:14;0.52;;;0.20;;
72369;SDS011;60343;-32.030;115.880;2022-09-03T04:33:47;2.17;;;0.40;;
72369;SDS011;60343;-32.030;115.880;2022-09-03T04:36:16;0.80;;;0.28;;
72369;SDS011;60343;-32.030;115.880;2022-09-03T04:38:45;2.25;;;0.38;;
72369;SDS011;60343;-32.030;115.880;2022-09-03T04:41:14;1.42;;;0.28;;
72369;SDS011;60343;-32.030;115.880;2022-09-03T04:43:44;2.25;;;0.30;;
72369;SDS011;60343;-32.030;115.880;2022-09-03T04:46:12;1.90;;;0.60;;
72369;SDS011;60343;-32.030;115.880;2022-09-03T04:48:46;1.25;;;0.20;;
72369;SDS011;60343;-32.030;115.880;2022-09-03T04:51:15;0.80;;;0.30;;
72369;SDS011;60343;-32.030;115.880;2022-09-03T04:53:45;0.75;;;0.30;;
72369;SDS011;60343;-32.030;115.880;2022-09-03T04:56:13;1.65;;;0.40;;
72369;SDS011;60343;-32.030;115.880;2022-09-03T04:58:42;1.23;;;0.30;;
72369;SDS011;60343;-32.030;115.880;2022-09-03T05:01:14;1.08;;;0.30;;
72369;SDS011;60343;-32.030;115.880;2022-09-03T05:03:48;0.60;;;0.20;;
72369;SDS011;60343;-32.030;115.880;2022-09-03T05:06:16;0.60;;;0.20;;
72369;SDS011;60343;-32.030;115.880;2022-09-03T05:08:47;0.82;;;0.20;;
72369;SDS011;60343;-32.030;115.880;2022-09-03T05:11:14;0.95;;;0.30;;
72369;SDS011;60343;-32.030;115.880;2022-09-03T05:13:42;1.13;;;0.30;;
72369;SDS011;60343;-32.030;115.880;2022-09-03T05:16:13;1.63;;;0.30;;
72369;SDS011;60343;-32.030;115.880;2022-09-03T05:18:41;1.38;;;0.20;;
72369;SDS011;60343;-32.030;115.880;2022-09-03T05:21:17;0.63;;;0.20;;
72369;SDS011;60343;-32.030;115.880;2022-09-03T05:23:45;0.65;;;0.20;;
72369;SDS011;60343;-32.030;115.880;2022-09-03T05:26:14;0.73;;;0.13;;
72369;SDS011;60343;-32.030;115.880;2022-09-03T05:28:43;1.77;;;0.30;;
72369;SDS011;60343;-32.030;115.880;2022-09-03T05:31:12;1.02;;;0.25;;
72369;SDS011;60343;-32.030;115.880;2022-09-03T05:33:41;1.15;;;0.25;;
72369;SDS011;60343;-32.030;115.880;2022-09-03T05:36:15;1.50;;;0.30;;
72369;SDS011;60343;-32.030;115.880;2022-09-03T05:38:45;1.52;;;0.30;;
72369;SDS011;60343;-32.030;115.880;2022-09-03T05:41:13;0.68;;;0.28;;
72369;SDS011;60343;-32.030;115.880;2022-09-03T05:43:41;1.23;;;0.22;;
72369;SDS011;60343;-32.030;115.880;2022-09-03T05:46:10;0.60;;;0.20;;
72369;SDS011;60343;-32.030;115.880;2022-09-03T05:48:38;1.98;;;0.40;;
72369;SDS011;60343;-32.030;115.880;2022-09-03T05:51:07;1.23;;;0.30;;
72369;SDS011;60343;-32.030;115.880;2022-09-03T05:53:41;1.30;;;0.30;;
72369;SDS011;60343;-32.030;115.880;2022-09-03T05:56:10;2.22;;;0.40;;
72369;SDS011;60343;-32.030;115.880;2022-09-03T05:58:40;2.05;;;0.32;;
72369;SDS011;60343;-32.030;115.880;2022-09-03T06:01:11;0.63;;;0.20;;
72369;SDS011;60343;-32.030;115.880;2022-09-03T06:03:39;2.33;;;0.20;;
72369;SDS011;60343;-32.030;115.880;2022-09-03T06:06:08;1.48;;;0.30;;
72369;SDS011;60343;-32.030;115.880;2022-09-03T06:08:41;1.00;;;0.30;;
72369;SDS011;60343;-32.030;115.880;2022-09-03T06:11:09;1.45;;;0.20;;
72369;SDS011;60343;-32.030;115.880;2022-09-03T06:13:37;1.13;;;0.35;;
72369;SDS011;60343;-32.030;115.880;2022-09-03T06:16:05;1.02;;;0.10;;
72369;SDS011;60343;-32.030;115.880;2022-09-03T06:18:33;1.17;;;0.30;;
72369;SDS011;60343;-32.030;115.880;2022-09-03T06:21:01;0.43;;;0.13;;
72369;SDS011;60343;-32.030;115.880;2022-09-03T06:23:29;1.83;;;0.40;;
72369;SDS011;60343;-32.030;115.880;2022-09-03T06:26:08;1.20;;;0.20;;
72369;SDS011;60343;-32.030;115.880;2022-09-03T06:28:37;2.03;;;0.50;;
72369;SDS011;60343;-32.030;115.880;2022-09-03T06:31:06;1.63;;;0.50;;
72369;SDS011;60343;-32.030;115.880;2022-09-03T06:33:35;1.65;;;0.40;;
72369;SDS011;60343;-32.030;115.880;2022-09-03T06:36:04;2.13;;;0.45;;
72369;SDS011;60343;-32.030;115.880;2022-09-03T06:38:34;1.70;;;0.30;;
72369;SDS011;60343;-32.030;115.880;2022-09-03T06:41:08;1.30;;;0.43;;
72369;SDS011;60343;-32.030;115.880;2022-09-03T06:43:38;1.13;;;0.30;;
72369;SDS011;60343;-32.030;115.880;2022-09-03T06:46:08;2.15;;;0.50;;
72369;SDS011;60343;-32.030;115.880;2022-09-03T06:48:37;1.00;;;0.30;;
72369;SDS011;60343;-32.030;115.880;2022-09-03T06:51:06;3.17;;;0.32;;
72369;SDS011;60343;-32.030;115.880;2022-09-03T06:53:35;1.02;;;0.30;;
72369;SDS011;60343;-32.030;115.880;2022-09-03T06:56:09;0.93;;;0.10;;
72369;SDS011;60343;-32.030;115.880;2022-09-03T06:58:38;1.27;;;0.38;;
72369;SDS011;60343;-32.030;115.880;2022-09-03T07:01:07;0.98;;;0.32;;
72369;SDS011;60343;-32.030;115.880;2022-09-03T07:03:36;2.70;;;0.50;;
72369;SDS011;60343;-32.030;115.880;2022-09-03T07:06:05;1.25;;;0.50;;
72369;SDS011;60343;-32.030;115.880;2022-09-03T07:08:34;1.40;;;0.30;;
72369;SDS011;60343;-32.030;115.880;2022-09-03T07:11:08;1.95;;;0.30;;
72369;SDS011;60343;-32.030;115.880;2022-09-03T07:13:38;1.98;;;0.45;;
72369;SDS011;60343;-32.030;115.880;2022-09-03T07:16:07;1.75;;;0.28;;
72369;SDS011;60343;-32.030;115.880;2022-09-03T07:18:36;1.65;;;0.40;;
72369;SDS011;60343;-32.030;115.880;2022-09-03T07:21:05;1.17;;;0.30;;
72369;SDS011;60343;-32.030;115.880;2022-09-03T07:23:35;0.80;;;0.20;;
72369;SDS011;60343;-32.030;115.880;2022-09-03T07:26:12;2.17;;;0.40;;
72369;SDS011;60343;-32.030;115.880;2022-09-03T07:28:42;1.30;;;0.30;;
72369;SDS011;60343;-32.030;115.880;2022-09-03T07:31:10;0.45;;;0.20;;
72369;SDS011;60343;-32.030;115.880;2022-09-03T07:33:40;1.45;;;0.20;;
72369;SDS011;60343;-32.030;115.880;2022-09-03T07:36:08;1.52;;;0.20;;
72369;SDS011;60343;-32.030;115.880;2022-09-03T07:38:37;1.73;;;0.50;;
72369;SDS011;60343;-32.030;115.880;2022-09-03T07:41:10;1.55;;;0.30;;
72369;SDS011;60343;-32.030;115.880;2022-09-03T07:43:39;0.90;;;0.30;;
72369;SDS011;60343;-32.030;115.880;2022-09-03T07:46:07;0.15;;;0.15;;
72369;SDS011;60343;-32.030;115.880;2022-09-03T07:48:35;0.75;;;0.20;;
72369;SDS011;60343;-32.030;115.880;2022-09-03T07:51:03;1.98;;;0.20;;
72369;SDS011;60343;-32.030;115.880;2022-09-03T07:53:31;1.35;;;0.30;;
72369;SDS011;60343;-32.030;115.880;2022-09-03T07:56:02;1.48;;;0.20;;
72369;SDS011;60343;-32.030;115.880;2022-09-03T07:58:37;1.38;;;0.20;;
72369;SDS011;60343;-32.030;115.880;2022-09-03T08:01:05;0.30;;;0.20;;
72369;SDS011;60343;-32.030;115.880;2022-09-03T08:03:34;3.03;;;0.30;;
72369;SDS011;60343;-32.030;115.880;2022-09-03T08:06:02;1.58;;;0.20;;
72369;SDS011;60343;-32.030;115.880;2022-09-03T08:08:32;1.58;;;0.30;;
72369;SDS011;60343;-32.030;115.880;2022-09-03T08:11:04;1.38;;;0.40;;
72369;SDS011;60343;-32.030;115.880;2022-09-03T08:16:05;1.00;;;0.22;;
72369;SDS011;60343;-32.030;115.880;2022-09-03T08:18:33;0.90;;;0.30;;
72369;SDS011;60343;-32.030;115.880;2022-09-03T08:21:02;0.98;;;0.20;;
72369;SDS011;60343;-32.030;115.880;2022-09-03T08:23:30;0.73;;;0.30;;
72369;SDS011;60343;-32.030;115.880;2022-09-03T08:25:59;0.80;;;0.40;;
72369;SDS011;60343;-32.030;115.880;2022-09-03T08:28:26;1.20;;;0.40;;
72369;SDS011;60343;-32.030;115.880;2022-09-03T08:31:00;1.42;;;0.20;;
72369;SDS011;60343;-32.030;115.880;2022-09-03T08:33:31;1.65;;;0.40;;
72369;SDS011;60343;-32.030;115.880;2022-09-03T08:35:59;0.88;;;0.30;;
72369;SDS011;60343;-32.030;115.880;2022-09-03T08:38:26;1.00;;;0.40;;
72369;SDS011;60343;-32.030;115.880;2022-09-03T08:41:02;1.40;;;0.35;;
72369;SDS011;60343;-32.030;115.880;2022-09-03T08:43:31;1.17;;;0.40;;
72369;SDS011;60343;-32.030;115.880;2022-09-03T08:46:21;1.33;;;0.40;;
72369;SDS011;60343;-32.030;115.880;2022-09-03T08:48:57;1.83;;;0.60;;
72369;SDS011;60343;-32.030;115.880;2022-09-03T08:51:25;1.42;;;0.50;;
72369;SDS011;60343;-32.030;115.880;2022-09-03T08:53:53;2.53;;;0.68;;
72369;SDS011;60343;-32.030;115.880;2022-09-03T08:56:24;2.47;;;0.90;;
72369;SDS011;60343;-32.030;115.880;2022-09-03T08:58:54;2.55;;;0.93;;
72369;SDS011;60343;-32.030;115.880;2022-09-03T09:01:29;3.50;;;0.50;;
72369;SDS011;60343;-32.030;115.880;2022-09-03T09:04:09;4.50;;;1.70;;
72369;SDS011;60343;-32.030;115.880;2022-09-03T09:06:48;1.52;;;0.55;;
72369;SDS011;60343;-32.030;115.880;2022-09-03T09:09:23;4.28;;;0.70;;
72369;SDS011;60343;-32.030;115.880;2022-09-03T09:11:59;1.48;;;0.60;;
72369;SDS011;60343;-32.030;115.880;2022-09-03T09:14:37;5.18;;;0.77;;
72369;SDS011;60343;-32.030;115.880;2022-09-03T09:17:20;2.30;;;0.60;;
72369;SDS011;60343;-32.030;115.880;2022-09-03T09:20:02;1.00;;;0.40;;
72369;SDS011;60343;-32.030;115.880;2022-09-03T09:22:35;1.23;;;0.40;;
72369;SDS011;60343;-32.030;115.880;2022-09-03T09:25:07;0.77;;;0.32;;
72369;SDS011;60343;-32.030;115.880;2022-09-03T09:27:38;1.33;;;0.47;;
72369;SDS011;60343;-32.030;115.880;2022-09-03T09:30:12;3.13;;;0.88;;
72369;SDS011;60343;-32.030;115.880;2022-09-03T09:32:46;2.05;;;1.05;;
72369;SDS011;60343;-32.030;115.880;2022-09-03T09:35:14;1.83;;;0.40;;
72369;SDS011;60343;-32.030;115.880;2022-09-03T09:37:47;1.65;;;0.60;;
72369;SDS011;60343;-32.030;115.880;2022-09-03T09:40:26;1.42;;;0.45;;
72369;SDS011;60343;-32.030;115.880;2022-09-03T09:43:03;1.52;;;0.50;;
72369;SDS011;60343;-32.030;115.880;2022-09-03T09:45:31;1.25;;;0.40;;
72369;SDS011;60343;-32.030;115.880;2022-09-03T09:48:06;1.80;;;0.50;;
72369;SDS011;60343;-32.030;115.880;2022-09-03T09:50:35;1.40;;;0.40;;
72369;SDS011;60343;-32.030;115.880;2022-09-03T09:53:03;4.82;;;0.40;;
72369;SDS011;60343;-32.030;115.880;2022-09-03T09:55:33;1.63;;;0.40;;
72369;SDS011;60343;-32.030;115.880;2022-09-03T09:58:04;0.98;;;0.40;;
72369;SDS011;60343;-32.030;115.880;2022-09-03T10:00:33;2.35;;;0.80;;
72369;SDS011;60343;-32.030;115.880;2022-09-03T10:03:08;3.15;;;1.00;;
72369;SDS011;60343;-32.030;115.880;2022-09-03T10:05:37;2.63;;;0.90;;
72369;SDS011;60343;-32.030;115.880;2022-09-03T10:08:06;2.88;;;1.00;;
72369;SDS011;60343;-32.030;115.880;2022-09-03T10:10:46;1.10;;;0.57;;
72369;SDS011;60343;-32.030;115.880;2022-09-03T10:13:17;1.83;;;0.80;;
72369;SDS011;60343;-32.030;115.880;2022-09-03T10:15:48;2.45;;;0.63;;
72369;SDS011;60343;-32.030;115.880;2022-09-03T10:18:27;3.22;;;0.73;;
72369;SDS011;60343;-32.030;115.880;2022-09-03T10:21:07;4.40;;;0.90;;
72369;SDS011;60343;-32.030;115.880;2022-09-03T10:23:45;1.95;;;0.75;;
72369;SDS011;60343;-32.030;115.880;2022-09-03T10:26:17;2.17;;;0.60;;
72369;SDS011;60343;-32.030;115.880;2022-09-03T10:28:48;1.58;;;0.57;;
72369;SDS011;60343;-32.030;115.880;2022-09-03T10:31:21;1.55;;;0.50;;
72369;SDS011;60343;-32.030;115.880;2022-09-03T10:34:19;1.55;;;0.50;;
72369;SDS011;60343;-32.030;115.880;2022-09-03T10:36:54;2.75;;;0.70;;
72369;SDS011;60343;-32.030;115.880;2022-09-03T10:39:28;0.90;;;0.40;;
72369;SDS011;60343;-32.030;115.880;2022-09-03T10:42:15;1.30;;;0.50;;
72369;SDS011;60343;-32.030;115.880;2022-09-03T10:44:55;2.05;;;0.50;;
72369;SDS011;60343;-32.030;115.880;2022-09-03T10:47:34;1.67;;;0.43;;
72369;SDS011;60343;-32.030;115.880;2022-09-03T10:50:31;2.72;;;0.50;;
72369;SDS011;60343;-32.030;115.880;2022-09-03T10:53:09;1.75;;;0.55;;
72369;SDS011;60343;-32.030;115.880;2022-09-03T10:55:47;1.48;;;0.60;;
72369;SDS011;60343;-32.030;115.880;2022-09-03T10:58:30;0.85;;;0.35;;
72369;SDS011;60343;-32.030;115.880;2022-09-03T11:01:21;1.55;;;0.40;;
72369;SDS011;60343;-32.030;115.880;2022-09-03T11:03:56;2.33;;;0.30;;
72369;SDS011;60343;-32.030;115.880;2022-09-03T11:06:45;0.63;;;0.25;;
72369;SDS011;60343;-32.030;115.880;2022-09-03T11:09:18;0.70;;;0.22;;
72369;SDS011;60343;-32.030;115.880;2022-09-03T11:11:50;0.80;;;0.30;;
72369;SDS011;60343;-32.030;115.880;2022-09-03T11:14:24;0.90;;;0.28;;
72369;SDS011;60343;-32.030;115.880;2022-09-03T11:17:00;0.88;;;0.30;;
72369;SDS011;60343;-32.030;115.880;2022-09-03T11:19:32;1.08;;;0.20;;
72369;SDS011;60343;-32.030;115.880;2022-09-03T11:22:08;1.05;;;0.30;;
72369;SDS011;60343;-32.030;115.880;2022-09-03T11:24:37;0.95;;;0.30;;
72369;SDS011;60343;-32.030;115.880;2022-09-03T11:27:11;0.70;;;0.20;;
72369;SDS011;60343;-32.030;115.880;2022-09-03T11:29:52;0.60;;;0.17;;
72369;SDS011;60343;-32.030;115.880;2022-09-03T11:32:25;0.90;;;0.30;;
72369;SDS011;60343;-32.030;115.880;2022-09-03T11:35:11;2.17;;;0.25;;
72369;SDS011;60343;-32.030;115.880;2022-09-03T11:37:51;0.32;;;0.15;;
72369;SDS011;60343;-32.030;115.880;2022-09-03T11:40:20;1.13;;;0.28;;
72369;SDS011;60343;-32.030;115.880;2022-09-03T11:43:04;1.65;;;0.28;;
72369;SDS011;60343;-32.030;115.880;2022-09-03T11:45:36;0.90;;;0.30;;
72369;SDS011;60343;-32.030;115.880;2022-09-03T11:48:17;0.80;;;0.22;;
72369;SDS011;60343;-32.030;115.880;2022-09-03T11:50:57;0.43;;;0.10;;
72369;SDS011;60343;-32.030;115.880;2022-09-03T11:53:32;0.70;;;0.20;;
72369;SDS011;60343;-32.030;115.880;2022-09-03T11:56:00;1.63;;;0.30;;
72369;SDS011;60343;-32.030;115.880;2022-09-03T11:58:43;1.00;;;0.20;;
72369;SDS011;60343;-32.030;115.880;2022-09-03T12:01:12;1.08;;;0.20;;
72369;SDS011;60343;-32.030;115.880;2022-09-03T12:03:42;1.52;;;0.32;;
72369;SDS011;60343;-32.030;115.880;2022-09-03T12:06:27;1.67;;;0.20;;
72369;SDS011;60343;-32.030;115.880;2022-09-03T12:09:23;0.60;;;0.20;;
72369;SDS011;60343;-32.030;115.880;2022-09-03T12:12:08;0.82;;;0.22;;
72369;SDS011;60343;-32.030;115.880;2022-09-03T12:14:46;0.55;;;0.20;;
72369;SDS011;60343;-32.030;115.880;2022-09-03T12:17:23;0.20;;;0.10;;
72369;SDS011;60343;-32.030;115.880;2022-09-03T12:19:57;0.30;;;0.17;;
72369;SDS011;60343;-32.030;115.880;2022-09-03T12:22:26;2.05;;;0.20;;
72369;SDS011;60343;-32.030;115.880;2022-09-03T12:25:05;0.52;;;0.20;;
72369;SDS011;60343;-32.030;115.880;2022-09-03T12:27:34;0.45;;;0.10;;
72369;SDS011;60343;-32.030;115.880;2022-09-03T12:30:02;0.75;;;0.17;;
72369;SDS011;60343;-32.030;115.880;2022-09-03T12:32:40;0.60;;;0.10;;
72369;SDS011;60343;-32.030;115.880;2022-09-03T12:35:11;0.57;;;0.20;;
72369;SDS011;60343;-32.030;115.880;2022-09-03T12:37:41;1.10;;;0.30;;
72369;SDS011;60343;-32.030;115.880;2022-09-03T12:40:21;0.68;;;0.20;;
72369;SDS011;60343;-32.030;115.880;2022-09-03T12:42:50;2.10;;;0.10;;
72369;SDS011;60343;-32.030;115.880;2022-09-03T12:45:19;0.93;;;0.20;;
72369;SDS011;60343;-32.030;115.880;2022-09-03T12:47:48;0.25;;;0.10;;
72369;SDS011;60343;-32.030;115.880;2022-09-03T12:50:17;0.25;;;0.10;;
72369;SDS011;60343;-32.030;115.880;2022-09-03T12:52:46;0.20;;;0.10;;
72369;SDS011;60343;-32.030;115.880;2022-09-03T12:55:33;0.50;;;0.10;;
72369;SDS011;60343;-32.030;115.880;2022-09-03T12:58:05;0.80;;;0.10;;
72369;SDS011;60343;-32.030;115.880;2022-09-03T13:00:38;0.30;;;0.10;;
72369;SDS011;60343;-32.030;115.880;2022-09-03T13:03:10;0.70;;;0.20;;
72369;SDS011;60343;-32.030;115.880;2022-09-03T13:05:42;0.47;;;0.10;;
72369;SDS011;60343;-32.030;115.880;2022-09-03T13:08:14;0.28;;;0.10;;
72369;SDS011;60343;-32.030;115.880;2022-09-03T13:10:52;0.30;;;0.10;;
72369;SDS011;60343;-32.030;115.880;2022-09-03T13:13:23;0.20;;;0.10;;
72369;SDS011;60343;-32.030;115.880;2022-09-03T13:16:02;0.13;;;0.10;;
72369;SDS011;60343;-32.030;115.880;2022-09-03T13:18:40;0.80;;;0.20;;
72369;SDS011;60343;-32.030;115.880;2022-09-03T13:21:18;1.10;;;0.30;;
72369;SDS011;60343;-32.030;115.880;2022-09-03T13:24:02;0.88;;;0.20;;
72369;SDS011;60343;-32.030;115.880;2022-09-03T13:26:57;0.90;;;0.30;;
72369;SDS011;60343;-32.030;115.880;2022-09-03T13:29:38;0.82;;;0.30;;
72369;SDS011;60343;-32.030;115.880;2022-09-03T13:32:24;0.73;;;0.20;;
72369;SDS011;60343;-32.030;115.880;2022-09-03T13:34:59;0.52;;;0.10;;
72369;SDS011;60343;-32.030;115.880;2022-09-03T13:37:33;0.30;;;0.10;;
72369;SDS011;60343;-32.030;115.880;2022-09-03T13:40:10;0.35;;;0.10;;
72369;SDS011;60343;-32.030;115.880;2022-09-03T13:42:51;1.10;;;0.20;;
72369;SDS011;60343;-32.030;115.880;2022-09-03T13:45:25;0.60;;;0.20;;
72369;SDS011;60343;-32.030;115.880;2022-09-03T13:48:01;0.70;;;0.13;;
72369;SDS011;60343;-32.030;115.880;2022-09-03T13:50:38;0.22;;;0.10;;
72369;SDS011;60343;-32.030;115.880;2022-09-03T13:53:13;0.20;;;0.10;;
72369;SDS011;60343;-32.030;115.880;2022-09-03T13:55:50;0.17;;;0.10;;
72369;SDS011;60343;-32.030;115.880;2022-09-03T13:58:27;0.73;;;0.20;;
72369;SDS011;60343;-32.030;115.880;2022-09-03T14:01:05;0.40;;;0.10;;
72369;SDS011;60343;-32.030;115.880;2022-09-03T14:03:42;0.32;;;0.10;;
72369;SDS011;60343;-32.030;115.880;2022-09-03T14:06:25;0.22;;;0.10;;
72369;SDS011;60343;-32.030;115.880;2022-09-03T14:09:08;0.22;;;0.10;;
72369;SDS011;60343;-32.030;115.880;2022-09-03T14:11:47;0.20;;;0.10;;
72369;SDS011;60343;-32.030;115.880;2022-09-03T14:14:27;0.10;;;0.10;;
72369;SDS011;60343;-32.030;115.880;2022-09-03T14:17:04;0.38;;;0.10;;
72369;SDS011;60343;-32.030;115.880;2022-09-03T14:19:40;0.52;;;0.20;;
72369;SDS011;60343;-32.030;115.880;2022-09-03T14:22:19;0.30;;;0.05;;
72369;SDS011;60343;-32.030;115.880;2022-09-03T14:24:51;0.20;;;0.00;;
72369;SDS011;60343;-32.030;115.880;2022-09-03T14:27:22;1.50;;;0.10;;
72369;SDS011;60343;-32.030;115.880;2022-09-03T14:29:58;0.15;;;0.00;;
72369;SDS011;60343;-32.030;115.880;2022-09-03T14:32:31;1.13;;;0.05;;
72369;SDS011;60343;-32.030;115.880;2022-09-03T14:35:16;0.22;;;0.10;;
72369;SDS011;60343;-32.030;115.880;2022-09-03T14:38:04;0.20;;;0.10;;
72369;SDS011;60343;-32.030;115.880;2022-09-03T14:40:46;0.70;;;0.20;;
72369;SDS011;60343;-32.030;115.880;2022-09-03T14:43:26;0.20;;;0.10;;
72369;SDS011;60343;-32.030;115.880;2022-09-03T14:46:20;0.25;;;0.10;;
72369;SDS011;60343;-32.030;115.880;2022-09-03T14:49:11;0.20;;;0.10;;
72369;SDS011;60343;-32.030;115.880;2022-09-03T14:51:57;0.10;;;0.00;;
72369;SDS011;60343;-32.030;115.880;2022-09-03T14:54:43;0.80;;;0.30;;
72369;SDS011;60343;-32.030;115.880;2022-09-03T15:05:49;0.32;;;0.20;;